KFST

Fort Stockton-Pecos County Airport

Fort Stockton, Texas, USA
METAR KFST 212253Z AUTO VRB05KT 10SM CLR 34/14 A2997 RMK AO2 SLP094 T03440139
Observed Flight Rules
Jun-21 @ 22:53 UTC (an hour ago) Visual Flight Rules
Wind Visibility Clouds
Variable at 5 knots 10 miles
  • Clear skies
Temperatures Readings
Current 34°C / 93°F
Dewpoint 14°C / 57°F
Humidity 30%
Altimeter 29.97" Hg
Pressure 1009.4 hPa
Elevation 918
METAR KFST 212253Z AUTO VRB05KT 10SM CLR 34/14 A2997 RMK AO2 SLP094 T03440139
Observed Flight Rules
Jun-21 @ 22:53 UTC
(an hour ago)
VFR
Wind Visibility
Variable at 5 knots 10 miles
Clouds
  • Clear skies
Temperature Dewpoint
34°C / 93°F 14°C / 57°F
Humidity Altimeter Pressure
30% 29.97" Hg 1009.4 hPa